Time;durP1;ratioP1;P1;durP2;ratioP2;P2;SDS_P1;SDS_P2;PMS_P1;PMS_P2;Temp;Humidity;BMP_temperature;BMP_pressure;BME280_temperature;BME280_humidity;BME280_pressure;Samples;Min_cycle;Max_cycle;Signal;HPM_P1;HPM_P2
2022/12/29 00:01:58;;;;;;;;;0.00;0.00;;;;;13.35;100.00;100307.19;5058341;28;45717;-76
2022/12/29 00:04:24;;;;;;;;;0.00;0.00;;;;;13.40;100.00;100312.47;5057478;28;53973;-75
2022/12/29 00:06:49;;;;;;;;;0.00;0.00;;;;;13.39;100.00;100313.38;5058238;28;46451;-75
2022/12/29 00:09:16;;;;;;;;;0.00;0.00;;;;;13.35;100.00;100301.91;5057829;28;45375;-77
2022/12/29 00:11:41;;;;;;;;;0.33;0.00;;;;;13.34;100.00;100292.19;5056994;28;45345;-78
2022/12/29 00:16:55;;;;;;;;;2.00;0.00;;;;;13.34;100.00;100293.06;5058092;28;45391;-77
2022/12/29 00:36:06;;;;;;;;;0.00;0.00;;;;;13.35;100.00;100286.00;5050059;28;45406;-76
2022/12/29 00:44:09;;;;;;;;;0.00;0.00;;;;;13.34;100.00;100310.75;5057401;28;45471;-76
2022/12/29 00:46:39;;;;;;;;;0.00;0.00;;;;;13.27;100.00;100319.66;5052395;28;45478;-75
2022/12/29 00:51:50;;;;;;;;;0.00;0.00;;;;;13.14;100.00;100294.09;5050755;28;45319;-76
2022/12/29 00:54:17;;;;;;;;;0.00;0.00;;;;;13.04;100.00;100282.69;5057250;28;45293;-76
2022/12/29 00:56:43;;;;;;;;;0.00;0.00;;;;;13.03;100.00;100304.78;5057702;28;45387;-75
2022/12/29 00:59:10;;;;;;;;;0.33;0.33;;;;;12.97;100.00;100304.81;5072824;28;46524;-76
2022/12/29 01:01:36;;;;;;;;;1.67;0.00;;;;;12.91;100.00;100283.69;5056086;28;45387;-76
2022/12/29 01:04:02;;;;;;;;;1.00;0.00;;;;;12.82;100.00;100279.31;5055909;28;45404;-76
2022/12/29 01:06:27;;;;;;;;;0.00;0.00;;;;;12.76;100.00;100282.00;5056966;28;45290;-75
2022/12/29 01:11:38;;;;;;;;;0.00;0.00;;;;;12.73;100.00;100279.38;5056036;28;45373;-74
2022/12/29 01:14:03;;;;;;;;;1.00;0.00;;;;;12.70;100.00;100276.75;5054750;28;45396;-74
2022/12/29 01:16:29;;;;;;;;;1.00;0.00;;;;;12.69;100.00;100275.88;5046942;28;45447;-76
2022/12/29 01:18:54;;;;;;;;;0.00;0.00;;;;;12.73;100.00;100284.66;5057021;28;46391;-75
2022/12/29 01:21:20;;;;;;;;;0.67;0.00;;;;;12.74;100.00;100278.50;5057122;28;45233;-75
2022/12/29 01:23:45;;;;;;;;;0.00;0.00;;;;;12.79;100.00;100282.88;5056705;28;51013;-75
2022/12/29 01:26:12;;;;;;;;;0.00;0.00;;;;;12.83;100.00;100278.41;5057659;28;53886;-75
2022/12/29 01:28:39;;;;;;;;;0.00;0.00;;;;;12.84;100.00;100282.84;5057147;28;45881;-74
2022/12/29 01:31:08;;;;;;;;;2.00;0.00;;;;;12.85;100.00;100284.59;5057050;28;45343;-76
2022/12/29 01:33:33;;;;;;;;;0.00;0.00;;;;;12.85;100.00;100285.47;5056798;28;45474;-77
2022/12/29 01:36:02;;;;;;;;;0.00;0.00;;;;;12.94;100.00;100286.28;5056710;28;53210;-77
2022/12/29 01:38:27;;;;;;;;;1.00;0.00;;;;;12.93;100.00;100290.72;5056337;28;46602;-75
2022/12/29 01:40:53;;;;;;;;;0.00;0.00;;;;;12.94;100.00;100276.56;5056308;28;55887;-75
2022/12/29 01:43:18;;;;;;;;;0.00;0.00;;;;;13.00;100.00;100294.22;5056331;28;52823;-74
2022/12/29 01:45:50;;;;;;;;;0.00;0.00;;;;;12.99;100.00;100292.44;5056204;28;55335;-76
2022/12/29 01:48:16;;;;;;;;;0.00;0.00;;;;;13.01;100.00;100280.94;5063905;28;48125;-75
2022/12/29 01:50:48;;;;;;;;;0.00;0.00;;;;;13.03;100.00;100289.75;5071968;28;45256;-76
2022/12/29 01:53:17;;;;;;;;;2.00;0.00;;;;;13.03;100.00;100300.34;5072600;28;45456;-75
2022/12/29 01:55:48;;;;;;;;;0.00;0.00;;;;;13.04;100.00;100288.84;5055277;28;45601;-77
2022/12/29 01:58:14;;;;;;;;;0.00;0.00;;;;;13.05;100.00;100274.75;5072443;28;45328;-76
2022/12/29 02:00:40;;;;;;;;;0.00;0.00;;;;;13.02;100.00;100274.75;5071995;28;45304;-74
2022/12/29 02:03:06;;;;;;;;;0.00;0.00;;;;;13.03;100.00;100284.44;5056664;28;45310;-74
2022/12/29 02:05:34;;;;;;;;;0.00;0.00;;;;;13.01;100.00;100285.38;5072386;28;45272;-76
2022/12/29 02:08:01;;;;;;;;;0.00;0.00;;;;;12.99;100.00;100293.31;5044233;28;45351;-75
2022/12/29 02:10:28;;;;;;;;;0.00;0.00;;;;;13.00;100.00;100294.22;5055933;28;48858;-76
2022/12/29 02:12:54;;;;;;;;;0.00;0.00;;;;;12.97;100.00;100296.88;5068508;28;45406;-76
2022/12/29 02:15:25;;;;;;;;;0.00;0.00;;;;;12.98;100.00;100307.47;5054502;28;54154;-75
2022/12/29 02:18:15;;;;;;;;;0.33;0.00;;;;;12.99;100.00;100305.69;5056192;28;46496;-75
2022/12/29 02:20:50;;;;;;;;;0.00;0.00;;;;;12.96;100.00;100300.44;5058438;28;46046;-76
2022/12/29 02:23:30;;;;;;;;;0.00;0.00;;;;;12.91;100.00;100295.16;5059800;28;45454;-76
2022/12/29 02:26:13;;;;;;;;;0.00;0.00;;;;;12.79;100.00;100295.25;5075738;28;45593;-74
2022/12/29 02:28:48;;;;;;;;;0.00;0.00;;;;;12.77;100.00;100302.31;5075289;28;45549;-76
2022/12/29 02:31:25;;;;;;;;;0.00;0.00;;;;;12.69;100.00;100302.38;5059855;28;45510;-75
2022/12/29 02:34:18;;;;;;;;;0.00;0.00;;;;;12.67;100.00;100290.00;5059764;28;45525;-75
2022/12/29 02:37:02;;;;;;;;;0.00;0.00;;;;;12.58;100.00;100275.06;5059574;28;46337;-75
2022/12/29 02:39:58;;;;;;;;;0.00;0.00;;;;;12.61;100.00;100279.47;5075026;28;46393;-76
2022/12/29 02:42:35;;;;;;;;;0.00;0.00;;;;;12.61;100.00;100280.34;5059293;28;45286;-74
2022/12/29 02:45:43;;;;;;;;;1.00;0.00;;;;;12.62;100.00;100291.81;5059462;28;45358;-78
2022/12/29 02:48:14;;;;;;;;;0.00;0.00;;;;;12.61;100.00;100298.00;5023932;28;45571;-76
2022/12/29 02:50:47;;;;;;;;;0.00;0.00;;;;;12.57;100.00;100291.84;5059061;28;46623;-75
2022/12/29 02:53:16;;;;;;;;;0.00;0.00;;;;;12.61;100.00;100292.69;5059316;28;45292;-75
2022/12/29 02:55:48;;;;;;;;;0.00;0.00;;;;;12.59;100.00;100290.94;5058073;28;45524;-76
2022/12/29 02:58:19;;;;;;;;;0.00;0.00;;;;;12.62;100.00;100299.75;5075298;28;45504;-75
2022/12/29 03:01:12;;;;;;;;;0.00;0.00;;;;;12.64;100.00;100309.47;5059111;28;46534;-76
2022/12/29 03:04:07;;;;;;;;;0.00;0.00;;;;;12.65;100.00;100294.44;5059113;28;45320;-75
2022/12/29 03:07:03;;;;;;;;;0.00;0.00;;;;;12.64;100.00;100293.56;5011189;28;45476;-76
2022/12/29 03:09:41;;;;;;;;;0.00;0.00;;;;;12.65;100.00;100289.16;5056552;28;45931;-77
2022/12/29 03:12:20;;;;;;;;;0.00;0.00;;;;;12.63;100.00;100283.88;5055033;28;45472;-75
2022/12/29 03:18:24;;;;;;;;;0.67;0.00;;;;;12.55;100.00;100289.19;5046818;28;45501;-73
2022/12/29 03:20:58;;;;;;;;;0.00;0.00;;;;;12.49;100.00;100307.78;5038532;28;45637;-76
2022/12/29 03:23:24;;;;;;;;;0.00;0.00;;;;;12.44;100.00;100298.97;5057372;28;46577;-75
2022/12/29 03:25:55;;;;;;;;;1.00;0.00;;;;;12.41;100.00;100292.78;5058896;28;45501;-75
2022/12/29 03:28:25;;;;;;;;;0.00;0.00;;;;;12.38;100.00;100291.06;5057473;28;45328;-75
2022/12/29 03:30:50;;;;;;;;;0.00;0.00;;;;;12.32;100.00;100297.28;5074278;28;45501;-76
2022/12/29 03:33:19;;;;;;;;;0.00;0.00;;;;;12.31;100.00;100294.63;5057910;28;60244;-76
2022/12/29 03:35:48;;;;;;;;;0.00;0.00;;;;;12.33;100.00;100309.63;5058802;28;45334;-76
2022/12/29 03:38:38;;;;;;;;;0.00;0.00;;;;;12.28;100.00;100306.09;5058645;28;45484;-76
2022/12/29 03:41:07;;;;;;;;;2.33;0.00;;;;;12.26;100.00;100309.66;5074459;28;45352;-77
2022/12/29 03:43:33;;;;;;;;;0.00;0.00;;;;;12.25;100.00;100310.53;5057978;28;47479;-74
2022/12/29 03:45:58;;;;;;;;;0.33;0.00;;;;;12.19;100.00;100297.31;5073510;28;51665;-75
2022/12/29 03:48:24;;;;;;;;;0.33;0.00;;;;;12.19;100.00;100299.97;5058010;28;51269;-75
2022/12/29 03:50:49;;;;;;;;;0.00;0.00;;;;;12.19;100.00;100305.25;5053629;28;45326;-75
2022/12/29 03:53:14;;;;;;;;;0.00;0.00;;;;;12.15;100.00;100301.75;5057719;28;46630;-77
2022/12/29 03:55:40;;;;;;;;;1.00;0.00;;;;;12.16;100.00;100308.81;5073924;28;45667;-74
2022/12/29 03:58:05;;;;;;;;;0.00;0.00;;;;;12.17;100.00;100309.69;5057977;28;54764;-74
2022/12/29 04:00:30;;;;;;;;;0.67;0.00;;;;;12.17;100.00;100310.56;5057813;28;54464;-75
2022/12/29 04:02:56;;;;;;;;;0.00;0.00;;;;;12.18;100.00;100314.09;5057490;28;61436;-75
2022/12/29 04:05:21;;;;;;;;;0.33;0.00;;;;;12.05;100.00;100315.91;5058131;28;45439;-75
2022/12/29 04:07:47;;;;;;;;;2.67;0.00;;;;;12.17;100.00;100322.91;5057698;28;54741;-76
2022/12/29 04:10:12;;;;;;;;;0.00;0.00;;;;;12.16;100.00;100321.16;5074254;28;45363;-75
2022/12/29 04:12:37;;;;;;;;;0.00;0.00;;;;;12.11;100.00;100315.00;5054608;28;45493;-75
2022/12/29 04:15:04;;;;;;;;;0.00;0.00;;;;;12.12;100.00;100315.00;5056789;28;45566;-75
2022/12/29 04:17:29;;;;;;;;;0.00;0.00;;;;;12.15;100.00;100330.88;5058141;28;45164;-77
2022/12/29 04:20:59;;;;;;;;;0.00;0.00;;;;;12.14;100.00;100328.22;5074741;28;45235;-76
2022/12/29 04:22:40;;;;;;;;;0.67;0.00;;;;;12.11;100.00;100328.25;5053377;28;45785;-78
2022/12/29 04:25:05;;;;;;;;;0.00;0.00;;;;;12.13;100.00;100342.34;5057188;28;59315;-75
2022/12/29 04:27:31;;;;;;;;;0.00;0.00;;;;;12.09;100.00;100348.53;5058033;28;45443;-76
2022/12/29 04:29:56;;;;;;;;;0.33;0.00;;;;;12.09;100.00;100344.13;5055747;28;56804;-77
2022/12/29 04:32:21;;;;;;;;;0.00;0.00;;;;;12.07;100.00;100345.88;5057644;28;52669;-75
2022/12/29 04:34:47;;;;;;;;;2.33;0.00;;;;;12.10;100.00;100332.66;5056906;28;61235;-75
2022/12/29 04:37:12;;;;;;;;;3.00;0.00;;;;;12.18;100.00;100356.44;5057776;28;46892;-75
2022/12/29 04:39:37;;;;;;;;;0.00;0.00;;;;;12.19;100.00;100353.78;5057508;28;45518;-78
2022/12/29 04:42:03;;;;;;;;;0.00;0.00;;;;;12.18;100.00;100348.50;5056071;28;62024;-75
2022/12/29 04:44:28;;;;;;;;;0.00;0.00;;;;;12.25;100.00;100352.88;5057534;28;45361;-78
2022/12/29 04:46:53;;;;;;;;;0.00;0.00;;;;;12.26;100.00;100359.97;5054525;28;49263;-74
2022/12/29 04:49:19;;;;;;;;;0.33;0.00;;;;;12.33;100.00;100362.56;5073139;28;45510;-75
2022/12/29 04:51:44;;;;;;;;;0.00;0.00;;;;;12.32;100.00;100359.94;5056991;28;49505;-76
2022/12/29 04:54:10;;;;;;;;;0.00;0.00;;;;;12.39;100.00;100360.78;5072717;28;56485;-74
2022/12/29 04:56:35;;;;;;;;;0.00;0.00;;;;;12.39;100.00;100359.00;5057460;28;45798;-76
2022/12/29 04:59:00;;;;;;;;;0.00;0.00;;;;;12.40;100.00;100370.47;5057118;28;55514;-75
2022/12/29 05:01:26;;;;;;;;;1.00;0.00;;;;;12.44;100.00;100375.75;5056705;28;62413;-75
2022/12/29 05:03:51;;;;;;;;;0.00;0.00;;;;;12.39;100.00;100374.91;5057015;28;45335;-76
2022/12/29 05:06:17;;;;;;;;;1.00;0.00;;;;;12.43;100.00;100384.59;5057596;28;45452;-75
2022/12/29 05:08:42;;;;;;;;;0.00;0.00;;;;;12.41;100.00;100375.78;5056872;28;53579;-78
2022/12/29 05:11:07;;;;;;;;;0.00;0.00;;;;;12.42;100.00;100380.19;5057002;28;55480;-76
2022/12/29 05:13:33;;;;;;;;;1.00;0.00;;;;;12.41;100.00;100375.78;5054096;28;56508;-75
2022/12/29 05:15:58;;;;;;;;;0.00;0.00;;;;;12.43;100.00;100375.78;5057312;28;45249;-76
2022/12/29 05:18:24;;;;;;;;;0.67;0.00;;;;;12.38;100.00;100359.91;5057068;28;45464;-78
2022/12/29 05:20:49;;;;;;;;;0.00;0.00;;;;;12.40;100.00;100381.94;5056873;28;46659;-77
2022/12/29 05:23:15;;;;;;;;;0.67;0.00;;;;;12.33;100.00;100378.44;5056496;28;52152;-74
2022/12/29 05:25:40;;;;;;;;;2.00;0.00;;;;;12.35;100.00;100377.56;5072817;28;45622;-75
2022/12/29 05:28:05;;;;;;;;;0.67;0.00;;;;;12.32;100.00;100386.41;5057058;28;45513;-76
2022/12/29 05:30:31;;;;;;;;;1.00;0.00;;;;;12.35;100.00;100401.38;5056644;28;55516;-76
2022/12/29 05:32:56;;;;;;;;;0.00;0.00;;;;;12.35;100.00;100396.97;5057563;28;45291;-75
2022/12/29 05:35:22;;;;;;;;;0.00;0.00;;;;;12.32;100.00;100400.50;5056585;28;52161;-75
2022/12/29 05:37:47;;;;;;;;;0.00;0.00;;;;;12.28;100.00;100409.34;5166929;22;45454;-75
2022/12/29 05:40:12;;;;;;;;;0.00;0.00;;;;;12.30;100.00;100407.59;5056297;28;53132;-75
2022/12/29 05:42:38;;;;;;;;;1.00;0.00;;;;;12.28;100.00;100405.81;5055159;28;45268;-74
2022/12/29 05:45:06;;;;;;;;;3.00;0.00;;;;;12.27;100.00;100407.59;5056805;28;45316;-76
2022/12/29 05:47:32;;;;;;;;;1.00;0.00;;;;;12.25;100.00;100409.38;5055426;28;45971;-76
2022/12/29 05:49:57;;;;;;;;;1.00;0.00;;;;;12.21;100.00;100390.84;5056315;28;46800;-77
2022/12/29 05:52:22;;;;;;;;;0.00;0.00;;;;;12.22;100.00;100396.13;5056764;28;45371;-76
2022/12/29 05:54:48;;;;;;;;;1.00;1.00;;;;;12.23;100.00;100416.41;5062456;28;54639;-74
2022/12/29 05:57:13;;;;;;;;;2.00;0.00;;;;;12.18;100.00;100407.59;5063202;28;47276;-75
2022/12/29 05:59:38;;;;;;;;;0.00;0.00;;;;;12.17;100.00;100410.25;5062709;28;54880;-75
2022/12/29 06:02:04;;;;;;;;;3.33;0.00;;;;;12.19;100.00;100419.94;5062435;28;61910;-75
2022/12/29 06:04:29;;;;;;;;;0.00;0.00;;;;;12.19;100.00;100413.78;5062895;28;57101;-78
2022/12/29 06:06:54;;;;;;;;;0.00;0.00;;;;;12.15;100.00;100418.22;5062947;28;48345;-77
2022/12/29 06:09:20;;;;;;;;;0.00;0.00;;;;;12.16;100.00;100421.75;5062546;28;62341;-75
2022/12/29 06:11:45;;;;;;;;;0.00;0.00;;;;;12.17;100.00;100432.31;5060386;28;59740;-75
2022/12/29 06:14:10;;;;;;;;;0.00;0.00;;;;;12.16;100.00;100434.97;5061064;28;53495;-75
2022/12/29 06:16:36;;;;;;;;;1.33;0.00;;;;;12.13;100.00;100434.97;5063117;28;45767;-75
2022/12/29 06:19:01;;;;;;;;;0.00;0.00;;;;;12.16;100.00;100451.72;5062785;28;46290;-77
2022/12/29 06:21:26;;;;;;;;;0.00;0.00;;;;;12.16;100.00;100451.72;5078214;28;49557;-75
2022/12/29 06:23:52;;;;;;;;;1.00;0.00;;;;;12.11;100.00;100437.63;5069821;28;57175;-75
2022/12/29 06:26:17;;;;;;;;;0.00;0.00;;;;;12.15;100.00;100452.63;5063083;28;45450;-75
2022/12/29 06:28:42;;;;;;;;;4.00;0.00;;;;;12.12;100.00;100443.78;5062648;28;45745;-76
2022/12/29 06:31:11;;;;;;;;;3.00;0.00;;;;;12.14;100.00;100455.25;5062480;28;51595;-75
2022/12/29 06:33:37;;;;;;;;;0.00;0.00;;;;;12.16;100.00;100458.78;5063005;28;45505;-76
2022/12/29 06:36:03;;;;;;;;;0.00;0.00;;;;;12.17;100.00;100479.97;5078881;28;45268;-77
2022/12/29 06:38:28;;;;;;;;;0.00;0.00;;;;;12.17;100.00;100472.00;5077436;28;46955;-75
2022/12/29 06:40:54;;;;;;;;;1.00;0.00;;;;;12.14;100.00;100489.66;5062327;28;56988;-76
2022/12/29 06:43:19;;;;;;;;;1.33;0.00;;;;;12.17;100.00;100489.66;5061972;28;54504;-75
2022/12/29 06:45:44;;;;;;;;;0.00;0.00;;;;;12.14;100.00;100487.00;5062540;28;53755;-77
2022/12/29 06:48:10;;;;;;;;;4.33;0.00;;;;;12.17;100.00;100505.53;5059703;28;46358;-76
2022/12/29 06:50:35;;;;;;;;;0.00;0.00;;;;;12.15;100.00;100494.97;5055638;28;59789;-75
2022/12/29 06:53:00;;;;;;;;;2.67;0.00;;;;;12.19;100.00;100506.41;5061331;28;45371;-75
2022/12/29 06:55:26;;;;;;;;;0.00;0.00;;;;;12.13;100.00;100502.00;5057750;28;45592;-75
2022/12/29 06:57:55;;;;;;;;;1.33;0.67;;;;;12.17;100.00;100505.53;5060098;28;46534;-76
2022/12/29 07:00:20;;;;;;;;;0.00;0.00;;;;;12.13;100.00;100499.38;5062410;28;45243;-74
2022/12/29 07:02:45;;;;;;;;;0.00;0.00;;;;;12.17;100.00;100501.13;5077685;28;52538;-74
2022/12/29 07:05:11;;;;;;;;;0.00;0.00;;;;;12.12;100.00;100505.53;5059827;28;52861;-75
2022/12/29 07:07:36;;;;;;;;;0.00;0.00;;;;;12.18;100.00;100502.00;5059004;28;45944;-76
2022/12/29 07:10:02;;;;;;;;;2.33;0.00;;;;;12.18;100.00;100507.31;5075305;28;45288;-76
2022/12/29 07:12:27;;;;;;;;;1.67;0.00;;;;;12.16;100.00;100507.31;5056589;28;45475;-76
2022/12/29 07:14:52;;;;;;;;;0.00;0.00;;;;;12.14;100.00;100505.53;5074768;28;45332;-78
2022/12/29 07:17:18;;;;;;;;;1.00;0.00;;;;;12.10;100.00;100502.03;5057998;28;62427;-77
2022/12/29 07:19:44;;;;;;;;;1.00;0.00;;;;;12.13;100.00;100506.44;5058950;28;45292;-74
2022/12/29 07:22:09;;;;;;;;;0.00;0.00;;;;;12.10;100.00;100514.38;5059000;28;45394;-76
2022/12/29 07:24:35;;;;;;;;;0.00;0.00;;;;;12.07;100.00;100504.66;5074579;28;45241;-76
2022/12/29 07:27:00;;;;;;;;;0.33;0.00;;;;;12.07;100.00;100512.59;5058658;28;45965;-75
2022/12/29 07:29:25;;;;;;;;;1.00;0.00;;;;;12.09;100.00;100515.25;5058578;28;45313;-77
2022/12/29 07:31:51;;;;;;;;;0.00;0.00;;;;;12.13;100.00;100530.25;5057062;28;57841;-74
2022/12/29 07:34:16;;;;;;;;;0.00;0.00;;;;;12.10;100.00;100519.69;5058174;28;54832;-77
2022/12/29 07:36:41;;;;;;;;;1.00;0.00;;;;;12.12;100.00;100529.38;5058066;28;60649;-75
2022/12/29 07:39:07;;;;;;;;;0.00;0.00;;;;;12.13;100.00;100541.72;5058746;28;45363;-77
2022/12/29 07:41:32;;;;;;;;;0.67;0.00;;;;;12.10;100.00;100539.09;5058413;28;45304;-76
2022/12/29 07:43:57;;;;;;;;;0.00;0.00;;;;;12.11;100.00;100542.59;5058831;28;45438;-77
2022/12/29 07:46:23;;;;;;;;;0.00;0.00;;;;;12.11;100.00;100543.50;5054943;28;56331;-78
2022/12/29 07:48:48;;;;;;;;;0.33;0.00;;;;;12.10;100.00;100546.16;5068652;28;59497;-75
2022/12/29 07:51:13;;;;;;;;;2.00;0.00;;;;;12.07;100.00;100552.31;5057809;28;53150;-75
2022/12/29 07:53:39;;;;;;;;;1.00;0.00;;;;;12.09;100.00;100565.53;5058005;28;51551;-77
2022/12/29 07:56:04;;;;;;;;;0.00;0.00;;;;;12.04;100.00;100561.13;5058378;28;46316;-76
2022/12/29 07:58:30;;;;;;;;;1.00;0.00;;;;;12.05;100.00;100565.53;5073861;28;45273;-76
2022/12/29 08:00:56;;;;;;;;;0.00;0.00;;;;;12.11;100.00;100582.31;5056740;28;54353;-74
2022/12/29 08:03:22;;;;;;;;;1.33;0.00;;;;;12.12;100.00;100586.72;5058095;28;45557;-77
2022/12/29 08:05:48;;;;;;;;;1.00;0.00;;;;;12.13;100.00;100580.53;5058103;28;45589;-76
2022/12/29 08:08:13;;;;;;;;;0.00;0.00;;;;;12.14;100.00;100591.09;5058463;28;45437;-74
2022/12/29 08:10:38;;;;;;;;;1.00;0.00;;;;;12.12;100.00;100584.06;5073269;28;53756;-74
2022/12/29 08:13:04;;;;;;;;;0.00;0.00;;;;;12.14;100.00;100598.16;5051211;28;46348;-76
2022/12/29 08:15:29;;;;;;;;;0.00;0.00;;;;;12.14;100.00;100604.34;5054351;28;46355;-75
2022/12/29 08:17:54;;;;;;;;;0.00;0.00;;;;;12.07;100.00;100598.16;5054973;28;54958;-75
2022/12/29 08:20:20;;;;;;;;;3.00;0.00;;;;;12.10;100.00;100604.38;5056278;28;54161;-75
2022/12/29 08:22:45;;;;;;;;;3.00;0.00;;;;;12.14;100.00;100607.00;5057507;28;54221;-76
2022/12/29 08:25:10;;;;;;;;;0.00;0.00;;;;;12.06;100.00;100614.94;5073362;28;45420;-74
2022/12/29 08:27:36;;;;;;;;;0.33;0.00;;;;;12.08;100.00;100596.41;5073062;28;54289;-75
2022/12/29 08:30:01;;;;;;;;;2.67;0.00;;;;;12.06;100.00;100606.13;5073812;28;45433;-75
2022/12/29 08:32:28;;;;;;;;;1.67;0.00;;;;;12.13;100.00;100620.22;5064648;28;45288;-75
2022/12/29 08:34:53;;;;;;;;;2.00;0.00;;;;;12.12;100.00;100613.19;5057602;28;45634;-77
2022/12/29 08:37:19;;;;;;;;;0.67;0.00;;;;;12.12;100.00;100623.75;5066173;28;45977;-74
2022/12/29 08:39:44;;;;;;;;;2.67;0.00;;;;;12.12;100.00;100624.66;5073136;28;45645;-75
2022/12/29 08:42:09;;;;;;;;;0.00;0.00;;;;;12.09;100.00;100626.38;5056566;28;52587;-75
2022/12/29 08:44:35;;;;;;;;;1.00;0.00;;;;;12.12;100.00;100635.22;5056606;28;61594;-75
2022/12/29 08:47:00;;;;;;;;;0.33;0.00;;;;;12.14;100.00;100640.50;5056801;28;54833;-75
2022/12/29 08:49:25;;;;;;;;;2.00;1.33;;;;;12.10;100.00;100636.13;5056842;28;51996;-77
2022/12/29 08:51:51;;;;;;;;;2.00;0.33;;;;;12.14;100.00;100643.16;5054333;28;45531;-76
2022/12/29 08:54:16;;;;;;;;;2.33;0.00;;;;;12.02;100.00;100631.69;5056957;28;55216;-76
2022/12/29 08:56:41;;;;;;;;;1.67;1.00;;;;;12.13;100.00;100641.41;5057308;28;45296;-75
2022/12/29 08:59:07;;;;;;;;;2.00;0.00;;;;;12.18;100.00;100658.19;5056951;28;55616;-76
2022/12/29 09:01:33;;;;;;;;;2.33;0.00;;;;;12.16;100.00;100647.59;5056984;28;55980;-75
2022/12/29 09:03:58;;;;;;;;;3.00;1.00;;;;;12.19;100.00;100660.81;5056868;28;46232;-78
2022/12/29 09:06:24;;;;;;;;;2.33;0.00;;;;;12.19;100.00;100646.69;5056985;28;52767;-77
2022/12/29 09:08:49;;;;;;;;;5.00;0.00;;;;;12.16;100.00;100655.53;5056843;28;54743;-74
2022/12/29 09:11:23;;;;;;;;;0.00;0.00;;;;;12.24;100.00;100672.28;5056947;28;51044;-74
2022/12/29 09:13:48;;;;;;;;;1.00;0.00;;;;;12.27;100.00;100672.31;5070074;28;46236;-77
2022/12/29 09:16:15;;;;;;;;;4.00;1.00;;;;;12.25;100.00;100657.28;5072747;28;45347;-75
2022/12/29 09:18:40;;;;;;;;;3.00;0.00;;;;;12.25;100.00;100654.66;5056973;28;45246;-74
2022/12/29 09:21:07;;;;;;;;;0.00;0.00;;;;;12.30;100.00;100655.53;5057035;28;45607;-77
2022/12/29 09:23:33;;;;;;;;;0.00;0.00;;;;;12.30;100.00;100672.34;5072698;28;45672;-76
2022/12/29 09:25:59;;;;;;;;;0.00;0.00;;;;;12.29;100.00;100683.78;5055541;28;45380;-77
2022/12/29 09:28:24;;;;;;;;;2.00;0.00;;;;;12.30;100.00;100692.59;5056453;28;45395;-76
2022/12/29 09:30:50;;;;;;;;;1.00;1.00;;;;;12.26;100.00;100685.56;5057091;28;45205;-75
2022/12/29 09:33:16;;;;;;;;;1.33;0.00;;;;;12.32;100.00;100690.84;5056587;28;45383;-75
2022/12/29 09:35:43;;;;;;;;;1.00;1.00;;;;;12.24;100.00;100685.53;5072624;28;45415;-75
2022/12/29 09:38:08;;;;;;;;;2.33;0.00;;;;;12.29;100.00;100701.44;5056593;28;45296;-75
2022/12/29 09:40:34;;;;;;;;;3.67;0.00;;;;;12.23;100.00;100697.00;5072738;28;45332;-75
2022/12/29 09:43:24;;;;;;;;;1.00;0.00;;;;;12.26;100.00;100701.44;5072271;28;46626;-76
2022/12/29 09:46:18;;;;;;;;;1.67;0.00;;;;;12.26;100.00;100696.16;5072319;28;45319;-74
2022/12/29 09:48:55;;;;;;;;;0.33;0.33;;;;;12.25;100.00;100703.22;5047893;28;45200;-74
2022/12/29 09:51:23;;;;;;;;;1.67;0.33;;;;;12.24;100.00;100704.06;5055373;28;45502;-74
2022/12/29 09:54:02;;;;;;;;;0.33;0.00;;;;;12.24;100.00;100714.66;5047167;28;46461;-74
2022/12/29 09:56:27;;;;;;;;;2.67;0.00;;;;;12.25;100.00;100729.69;5056564;28;45327;-76
2022/12/29 09:59:16;;;;;;;;;0.00;0.00;;;;;12.20;100.00;100714.66;5055662;28;45159;-76
2022/12/29 10:01:41;;;;;;;;;0.00;0.00;;;;;12.24;100.00;100717.31;5057291;28;45611;-75
2022/12/29 10:04:07;;;;;;;;;2.00;0.00;;;;;12.26;100.00;100731.44;5072278;28;45828;-77
2022/12/29 10:06:49;;;;;;;;;4.33;0.33;;;;;12.30;100.00;100733.22;5072153;28;45421;-78
2022/12/29 10:09:33;;;;;;;;;4.33;1.00;;;;;12.36;100.00;100744.69;5054266;28;45333;-76
2022/12/29 10:12:20;;;;;;;;;7.67;0.33;;;;;12.41;100.00;100734.97;5069640;28;45234;-77
2022/12/29 10:14:54;;;;;;;;;2.00;0.00;;;;;12.41;100.00;100733.25;5056325;28;46807;-77
2022/12/29 10:17:44;;;;;;;;;0.00;0.00;;;;;12.42;100.00;100742.94;5071974;28;45494;-78
2022/12/29 10:20:15;;;;;;;;;4.67;0.33;;;;;12.39;100.00;100734.09;5055193;28;45280;-75
2022/12/29 10:22:58;;;;;;;;;0.67;0.67;;;;;12.44;100.00;100732.34;5056526;28;45426;-75
2022/12/29 10:25:25;;;;;;;;;7.33;1.00;;;;;12.46;100.00;100735.88;5056083;28;46137;-76
2022/12/29 10:27:54;;;;;;;;;2.00;0.00;;;;;12.42;100.00;100729.72;5056316;28;45385;-76
2022/12/29 10:30:19;;;;;;;;;3.00;0.00;;;;;12.41;100.00;100729.69;5071984;28;45401;-77
2022/12/29 10:32:58;;;;;;;;;2.33;0.00;;;;;12.42;100.00;100737.66;5071488;28;54328;-76
2022/12/29 10:35:26;;;;;;;;;0.00;0.00;;;;;12.41;100.00;100737.63;5071908;28;45862;-75
2022/12/29 10:38:30;;;;;;;;;2.67;0.00;;;;;12.38;100.00;100730.56;5054425;28;45456;-77
2022/12/29 10:41:20;;;;;;;;;0.00;0.00;;;;;12.37;100.00;100725.28;5058657;28;45242;-76
2022/12/29 10:43:47;;;;;;;;;1.00;1.00;;;;;12.35;100.00;100734.97;5059608;28;45477;-78
2022/12/29 10:46:17;;;;;;;;;2.00;0.67;;;;;12.36;100.00;100729.72;5057176;28;45878;-74
2022/12/29 10:48:45;;;;;;;;;0.67;0.67;;;;;12.39;100.00;100736.75;5058574;28;45344;-74
2022/12/29 10:51:19;;;;;;;;;0.00;0.00;;;;;12.41;100.00;100737.63;5059534;28;45469;-75
2022/12/29 10:54:05;;;;;;;;;2.33;0.00;;;;;12.43;100.00;100728.81;5059335;28;45711;-76
2022/12/29 10:56:44;;;;;;;;;0.33;0.33;;;;;12.40;100.00;100719.97;5059054;28;45983;-76
2022/12/29 10:59:13;;;;;;;;;2.67;0.00;;;;;12.42;100.00;100729.72;5059220;28;45511;-74
2022/12/29 11:01:45;;;;;;;;;2.33;0.67;;;;;12.36;100.00;100718.19;5059163;28;45229;-75
2022/12/29 11:04:23;;;;;;;;;3.00;1.00;;;;;12.41;100.00;100727.03;5074892;28;45416;-77
2022/12/29 11:06:49;;;;;;;;;0.00;0.00;;;;;12.41;100.00;100732.34;5074661;28;46748;-76
2022/12/29 11:09:25;;;;;;;;;2.00;1.00;;;;;12.39;100.00;100726.16;5057257;28;61074;-78
2022/12/29 11:11:50;;;;;;;;;3.67;0.00;;;;;12.43;100.00;100734.13;5072241;28;45393;-75
2022/12/29 11:14:31;;;;;;;;;1.33;0.33;;;;;12.42;100.00;100729.72;5058460;28;49871;-78
2022/12/29 11:17:02;;;;;;;;;1.00;0.00;;;;;12.47;100.00;100732.38;5058852;28;46807;-77
2022/12/29 11:19:32;;;;;;;;;2.67;0.00;;;;;12.57;100.00;100724.44;5058966;28;45361;-76
2022/12/29 11:22:24;;;;;;;;;1.00;0.00;;;;;12.70;100.00;100730.63;5059141;28;45341;-75
2022/12/29 11:24:52;;;;;;;;;0.00;0.00;;;;;12.74;100.00;100731.53;5074659;28;45262;-77
2022/12/29 11:27:23;;;;;;;;;1.67;0.67;;;;;12.71;100.00;100716.50;5058843;28;45765;-76
2022/12/29 11:29:50;;;;;;;;;3.00;1.67;;;;;12.86;100.00;100744.75;5057194;28;45454;-74
2022/12/29 11:32:18;;;;;;;;;4.00;1.00;;;;;12.89;100.00;100734.19;5057860;28;45445;-75
2022/12/29 11:34:43;;;;;;;;;1.67;1.00;;;;;12.95;100.00;100736.81;5058705;28;45572;-77
2022/12/29 11:37:14;;;;;;;;;1.00;1.00;;;;;13.05;100.00;100743.00;5056797;28;65945;-76
2022/12/29 11:39:46;;;;;;;;;6.00;1.00;;;;;13.11;100.00;100741.22;5058408;28;45316;-76
2022/12/29 11:42:17;;;;;;;;;5.00;2.00;;;;;13.14;100.00;100734.16;5058917;28;45294;-77
2022/12/29 11:44:47;;;;;;;;;2.00;0.67;;;;;13.22;100.00;100745.66;5057415;28;45617;-75
2022/12/29 11:47:33;;;;;;;;;3.33;1.67;;;;;13.19;100.00;100735.91;5071374;28;45374;-76
2022/12/29 11:50:05;;;;;;;;;5.67;1.00;;;;;13.10;100.00;100723.56;5053639;28;60658;-74
2022/12/29 11:52:39;;;;;;;;;0.33;0.00;;;;;13.10;100.00;100730.59;5057103;28;45461;-77
2022/12/29 11:55:13;;;;;;;;;2.00;0.00;;;;;13.05;100.00;100727.97;5058555;28;46969;-75
2022/12/29 11:57:41;;;;;;;;;3.33;0.00;;;;;12.98;100.00;100720.00;5073829;28;46280;-75
2022/12/29 12:00:19;;;;;;;;;0.67;0.67;;;;;12.96;100.00;100716.50;5057565;28;61072;-76